Terminal Aerodrome Forecast
Issued by NWS Portland, OR

Home | Current Version | Previous Version | Text Only | Print | Product List | Glossary On
Versions: 1 2 3 4 5 6 7 8 9 10 11 12 13 14 15 16 17 18 19 20 21 22 23 24 25 26 27 28 29 30 31 32 33 34 35 36 37 38 39 40 41 42 43 44 45
000
FTUS46 KPQR 271226 AAA
TAFTTD
TAF AMD
KTTD 271226Z 2712/2812 16007KT 6SM -SHRA BR SCT008 BKN012 OVC025
     FM271500 19005KT P6SM -SHRA SCT008 BKN018 OVC025
     FM271900 15007KT P6SM -SHRAGS SCT020 OVC030
     FM280000 09015KT P6SM VCSH SCT025 BKN035
     FM280300 09012KT P6SM BKN050
     FM280800 09009KT P6SM BKN100=

USA.gov is the U.S. government's official web portal to all federal, state and local government web resources and services.